createdAt,value
2018-08-22T00:01:00.835Z,30.8
2018-08-22T00:02:02.316Z,30.3
2018-08-22T00:03:03.955Z,30.8
2018-08-22T00:04:05.535Z,30.3
2018-08-22T00:05:07.009Z,30.8
2018-08-22T00:06:08.447Z,30.8
2018-08-22T00:07:10.044Z,30.8
2018-08-22T00:08:11.484Z,30.8
2018-08-22T00:09:12.907Z,30.8
2018-08-22T00:10:14.359Z,29.8
2018-08-22T00:11:15.949Z,31.3
2018-08-22T00:12:17.221Z,30.8
2018-08-22T00:13:18.485Z,30.3
2018-08-22T00:14:20.083Z,30.8
2018-08-22T00:15:21.693Z,30.3
2018-08-22T00:16:23.303Z,30.8
2018-08-22T00:17:24.915Z,30.8
2018-08-22T00:18:26.188Z,30.8
2018-08-22T00:19:27.794Z,30.8
2018-08-22T00:20:29.392Z,30.8
2018-08-22T00:21:30.990Z,30.8
2018-08-22T00:22:32.710Z,30.8
2018-08-22T00:23:34.295Z,30.8
2018-08-22T00:24:35.385Z,30.3
2018-08-22T00:25:37.002Z,30.3
2018-08-22T00:26:38.609Z,29.8
2018-08-22T00:27:40.225Z,30.3
2018-08-22T00:28:41.492Z,30.8
2018-08-22T00:29:43.110Z,30.3
2018-08-22T00:30:44.709Z,31.3
2018-08-22T00:31:46.157Z,30.3
2018-08-22T00:32:47.767Z,30.8
2018-08-22T00:33:48.860Z,29.8
2018-08-22T00:34:50.316Z,30.3
2018-08-22T00:35:51.733Z,31.3
2018-08-22T00:36:53.314Z,30.8
2018-08-22T00:37:54.590Z,30.8
2018-08-22T00:38:56.181Z,30.3
2018-08-22T00:39:57.789Z,29.8
2018-08-22T00:40:59.224Z,30.8
2018-08-22T00:42:00.848Z,30.3
2018-08-22T00:43:02.297Z,31.3
2018-08-22T00:44:03.741Z,30.8
2018-08-22T00:45:05.174Z,29.8
2018-08-22T00:46:07.006Z,30.3
2018-08-22T00:47:08.610Z,30.3
2018-08-22T00:48:10.025Z,29.8
2018-08-22T00:49:11.640Z,30.3
2018-08-22T00:50:13.234Z,30.3
2018-08-22T00:51:14.664Z,30.8
2018-08-22T00:52:16.254Z,30.3
2018-08-22T00:53:17.684Z,30.8
2018-08-22T00:54:18.957Z,30.3
2018-08-22T00:55:20.381Z,29.8
2018-08-22T00:56:21.825Z,30.8
2018-08-22T00:57:23.409Z,30.3
2018-08-22T00:58:25.012Z,30.3
2018-08-22T00:59:26.603Z,30.3
2018-08-22T01:00:27.891Z,29.8
2018-08-22T01:01:29.504Z,30.8
2018-08-22T01:02:30.765Z,30.3
2018-08-22T01:03:32.356Z,29.8
2018-08-22T01:04:33.796Z,30.8
2018-08-22T01:05:35.390Z,30.3
2018-08-22T01:06:36.978Z,30.3
2018-08-22T01:07:38.624Z,30.3
2018-08-22T01:08:40.071Z,30.3
2018-08-22T01:09:41.661Z,30.8
2018-08-22T01:10:43.097Z,30.8
2018-08-22T01:11:44.691Z,30.8
2018-08-22T01:12:45.808Z,30.8
2018-08-22T01:13:47.393Z,29.8
2018-08-22T01:14:48.989Z,30.3
2018-08-22T01:15:50.577Z,30.3
2018-08-22T01:16:52.008Z,30.3
2018-08-22T01:17:53.593Z,29.8
2018-08-22T01:18:54.857Z,29.8
2018-08-22T01:19:56.473Z,29.8
2018-08-22T01:20:58.065Z,30.3
2018-08-22T01:21:59.650Z,29.8
2018-08-22T01:23:01.268Z,29.8
2018-08-22T01:24:02.726Z,30.3
2018-08-22T01:25:04.363Z,30.3
2018-08-22T01:26:05.819Z,29.8
2018-08-22T01:27:07.403Z,30.3
2018-08-22T01:28:08.995Z,29.8
2018-08-22T01:29:10.429Z,29.8
2018-08-22T01:30:12.022Z,30.3
2018-08-22T01:31:13.615Z,30.8
2018-08-22T01:32:15.206Z,30.3
2018-08-22T01:33:16.631Z,30.8
2018-08-22T01:34:18.227Z,30.3
2018-08-22T01:35:19.830Z,30.3
2018-08-22T01:36:21.260Z,30.8
2018-08-22T01:37:22.689Z,30.8
2018-08-22T01:38:24.158Z,30.8
2018-08-22T01:39:25.824Z,30.8
2018-08-22T01:40:27.245Z,30.8
2018-08-22T01:41:28.674Z,30.3
2018-08-22T01:42:30.089Z,30.8
2018-08-22T01:43:31.363Z,31.3
2018-08-22T01:44:32.460Z,31.3
2018-08-22T01:45:34.065Z,30.8
2018-08-22T01:46:35.503Z,30.8
2018-08-22T01:47:37.124Z,31.3
2018-08-22T01:48:38.708Z,31.3
2018-08-22T01:49:40.302Z,31.3
2018-08-22T01:50:41.892Z,31.8
2018-08-22T01:51:43.330Z,31.8
2018-08-22T01:52:44.745Z,31.3
2018-08-22T01:53:46.344Z,31.3
2018-08-22T01:54:47.933Z,31.3
2018-08-22T01:55:49.349Z,31.8
2018-08-22T01:56:50.795Z,31.8
2018-08-22T01:57:52.400Z,31.8
2018-08-22T01:58:54.203Z,31.8
2018-08-22T01:59:55.862Z,31.3
2018-08-22T02:00:57.324Z,31.8
2018-08-22T02:01:58.594Z,31.8
2018-08-22T02:03:00.030Z,31.3
2018-08-22T02:04:01.625Z,31.8
2018-08-22T02:05:03.090Z,31.8
2018-08-22T02:06:04.741Z,32.3
2018-08-22T02:07:06.178Z,32.3
2018-08-22T02:08:07.783Z,32.3
2018-08-22T02:09:09.045Z,31.3
2018-08-22T02:10:10.668Z,32.3
2018-08-22T02:11:12.099Z,32.3
2018-08-22T02:12:13.705Z,31.8
2018-08-22T02:13:15.303Z,32.3
2018-08-22T02:14:16.725Z,31.3
2018-08-22T02:15:18.162Z,32.3
2018-08-22T02:16:19.757Z,31.8
2018-08-22T02:17:21.012Z,32.3
2018-08-22T02:18:22.444Z,32.7
2018-08-22T02:19:23.878Z,31.8
2018-08-22T02:20:25.323Z,32.3
2018-08-22T02:21:26.762Z,32.3
2018-08-22T02:22:28.208Z,32.3
2018-08-22T02:23:29.800Z,31.8
2018-08-22T02:24:31.234Z,32.3
2018-08-22T02:25:32.815Z,32.3
2018-08-22T02:26:34.411Z,32.3
2018-08-22T02:27:35.692Z,32.3
2018-08-22T02:28:37.298Z,32.3
2018-08-22T02:29:39.113Z,31.8
2018-08-22T02:30:40.705Z,31.8
2018-08-22T02:31:42.153Z,32.7
2018-08-22T02:32:43.764Z,31.8
2018-08-22T02:33:45.206Z,32.3
2018-08-22T02:34:46.636Z,32.3
2018-08-22T02:35:48.256Z,32.3
2018-08-22T02:36:49.691Z,31.8
2018-08-22T02:37:51.288Z,32.3
2018-08-22T02:38:52.889Z,32.7
2018-08-22T02:39:54.179Z,32.3
2018-08-22T02:40:55.629Z,32.7
2018-08-22T02:41:57.227Z,32.3
2018-08-22T02:42:58.673Z,31.8
2018-08-22T02:43:59.933Z,31.8
2018-08-22T02:45:01.534Z,32.3
2018-08-22T02:46:02.789Z,32.7
2018-08-22T02:47:04.394Z,32.7
2018-08-22T02:48:05.984Z,32.3
2018-08-22T02:49:07.581Z,31.8
2018-08-22T02:50:09.206Z,32.3
2018-08-22T02:51:10.800Z,32.3
2018-08-22T02:52:12.095Z,31.8
2018-08-22T02:53:13.528Z,32.3
2018-08-22T02:54:15.148Z,32.3
2018-08-22T02:55:16.426Z,31.8
2018-08-22T02:56:17.704Z,31.8
2018-08-22T02:57:19.130Z,31.8
2018-08-22T02:58:20.747Z,31.8
2018-08-22T02:59:22.359Z,32.3
2018-08-22T03:00:23.945Z,31.8
2018-08-22T03:01:25.562Z,31.8
2018-08-22T03:02:26.995Z,31.8
2018-08-22T03:03:28.647Z,31.8
2018-08-22T03:04:30.076Z,31.3
2018-08-22T03:05:31.673Z,31.8
2018-08-22T03:06:33.267Z,31.8
2018-08-22T03:07:34.702Z,31.8
2018-08-22T03:08:36.313Z,31.8
2018-08-22T03:09:37.900Z,32.3
2018-08-22T03:10:39.329Z,31.8
2018-08-22T03:11:40.934Z,31.8
2018-08-22T03:12:42.363Z,31.3
2018-08-22T03:13:43.985Z,31.8
2018-08-22T03:14:45.418Z,31.8
2018-08-22T03:15:46.840Z,32.3
2018-08-22T03:16:48.444Z,31.3
2018-08-22T03:17:49.715Z,31.3
2018-08-22T03:18:51.304Z,31.3
2018-08-22T03:19:52.739Z,31.3
2018-08-22T03:20:54.339Z,31.8
2018-08-22T03:21:55.968Z,31.8
2018-08-22T03:22:57.530Z,31.8
2018-08-22T03:23:59.135Z,31.8
2018-08-22T03:25:00.570Z,31.3
2018-08-22T03:26:02.270Z,31.3
2018-08-22T03:27:03.896Z,31.8
2018-08-22T03:28:05.317Z,30.8
2018-08-22T03:29:06.927Z,30.8
2018-08-22T03:30:08.522Z,31.3
2018-08-22T03:31:10.127Z,31.8
2018-08-22T03:32:11.735Z,31.8
2018-08-22T03:33:13.337Z,31.8
2018-08-22T03:34:14.941Z,31.3
2018-08-22T03:35:16.518Z,31.8
2018-08-22T03:36:18.125Z,31.3
2018-08-22T03:37:19.413Z,31.8
2018-08-22T03:38:20.845Z,31.8
2018-08-22T03:39:22.437Z,31.8
2018-08-22T03:40:24.047Z,31.8
2018-08-22T03:41:25.632Z,31.3
2018-08-22T03:42:27.235Z,31.8
2018-08-22T03:43:28.855Z,31.3
2018-08-22T03:44:30.281Z,31.3
2018-08-22T03:45:31.742Z,31.8
2018-08-22T03:46:33.014Z,31.8
2018-08-22T03:47:34.450Z,31.8
2018-08-22T03:48:35.896Z,31.8
2018-08-22T03:49:37.490Z,32.3
2018-08-22T03:50:38.936Z,32.7
2018-08-22T03:51:40.381Z,32.3
2018-08-22T03:52:41.836Z,32.7
2018-08-22T03:53:43.262Z,31.8
2018-08-22T03:54:44.493Z,32.3
2018-08-22T03:55:46.155Z,32.7
2018-08-22T03:56:47.637Z,32.7
2018-08-22T03:57:49.279Z,32.3
2018-08-22T03:58:50.878Z,32.7
2018-08-22T03:59:52.330Z,32.3
2018-08-22T04:00:53.933Z,33.2
2018-08-22T04:01:55.214Z,32.3
2018-08-22T04:02:56.327Z,32.7
2018-08-22T04:03:57.933Z,32.7
2018-08-22T04:04:59.200Z,32.3
2018-08-22T04:06:00.873Z,32.7
2018-08-22T04:07:02.151Z,32.7
2018-08-22T04:08:03.603Z,32.7
2018-08-22T04:09:05.200Z,32.3
2018-08-22T04:10:06.830Z,32.7
2018-08-22T04:11:08.281Z,33.2
2018-08-22T04:12:09.713Z,32.7
2018-08-22T04:13:11.155Z,33.2
2018-08-22T04:14:12.443Z,32.3
2018-08-22T04:15:14.042Z,32.3
2018-08-22T04:16:15.460Z,31.8
2018-08-22T04:17:16.904Z,32.3
2018-08-22T04:18:18.340Z,32.7
2018-08-22T04:19:19.803Z,33.2
2018-08-22T04:20:21.428Z,32.7
2018-08-22T04:21:22.862Z,32.7
2018-08-22T04:22:24.313Z,32.3
2018-08-22T04:23:25.741Z,32.3
2018-08-22T04:24:27.590Z,32.7
2018-08-22T04:25:29.048Z,32.7
2018-08-22T04:26:30.484Z,32.3
2018-08-22T04:27:32.103Z,33.2
2018-08-22T04:28:33.553Z,32.3
2018-08-22T04:29:35.233Z,31.8
2018-08-22T04:30:36.702Z,32.3
2018-08-22T04:31:38.322Z,32.3
2018-08-22T04:32:39.761Z,32.3
2018-08-22T04:33:41.038Z,32.3
2018-08-22T04:34:42.630Z,32.3
2018-08-22T04:35:43.954Z,32.3
2018-08-22T04:36:45.240Z,32.7
2018-08-22T04:37:46.717Z,32.3
2018-08-22T04:38:48.331Z,32.7
2018-08-22T04:39:49.967Z,31.8
2018-08-22T04:40:51.562Z,32.3
2018-08-22T04:41:52.843Z,32.3
2018-08-22T04:42:54.099Z,31.8
2018-08-22T04:43:56.246Z,32.3
2018-08-22T04:44:57.851Z,32.3
2018-08-22T04:45:59.450Z,31.8
2018-08-22T04:47:01.066Z,32.7
2018-08-22T04:48:02.502Z,32.7
2018-08-22T04:49:04.111Z,32.3
2018-08-22T04:50:05.734Z,32.3
2018-08-22T04:51:07.173Z,32.3
2018-08-22T04:52:08.462Z,31.8
2018-08-22T04:53:10.086Z,31.8
2018-08-22T04:54:11.706Z,31.8
2018-08-22T04:55:13.320Z,32.3
2018-08-22T04:56:14.921Z,31.8
2018-08-22T04:57:16.526Z,31.8
2018-08-22T04:58:18.002Z,31.8
2018-08-22T04:59:19.616Z,32.3
2018-08-22T05:00:21.223Z,31.8
2018-08-22T05:01:22.683Z,31.8
2018-08-22T05:02:24.126Z,31.3
2018-08-22T05:03:25.721Z,31.8
2018-08-22T05:04:27.170Z,32.7
2018-08-22T05:05:28.777Z,32.3
2018-08-22T05:06:30.434Z,32.3
2018-08-22T05:07:31.901Z,31.8
2018-08-22T05:08:33.516Z,31.8
2018-08-22T05:09:35.118Z,31.3
2018-08-22T05:10:36.401Z,31.8
2018-08-22T05:11:37.674Z,32.3
2018-08-22T05:12:39.115Z,32.3
2018-08-22T05:13:40.581Z,31.3
2018-08-22T05:14:42.013Z,31.8
2018-08-22T05:15:43.612Z,31.3
2018-08-22T05:16:45.044Z,31.8
2018-08-22T05:17:46.654Z,31.8
2018-08-22T05:18:48.267Z,31.8
2018-08-22T05:19:49.715Z,31.3
2018-08-22T05:20:51.177Z,31.3
2018-08-22T05:21:52.779Z,31.8
2018-08-22T05:22:54.410Z,31.8
2018-08-22T05:23:55.843Z,30.8
2018-08-22T05:24:57.118Z,31.3
2018-08-22T05:25:58.716Z,31.3
2018-08-22T05:27:00.340Z,31.3
2018-08-22T05:28:01.957Z,30.8
2018-08-22T05:29:03.543Z,30.3
2018-08-22T05:30:06.366Z,31.8
2018-08-22T05:31:07.796Z,31.3
2018-08-22T05:32:09.235Z,31.3
2018-08-22T05:33:10.827Z,31.3
2018-08-22T05:34:12.260Z,31.3
2018-08-22T05:35:13.697Z,31.8
2018-08-22T05:36:15.315Z,31.3
2018-08-22T05:37:16.759Z,31.3
2018-08-22T05:38:18.361Z,30.3
2018-08-22T05:39:19.958Z,30.8
2018-08-22T05:40:21.562Z,31.3
2018-08-22T05:41:23.014Z,31.3
2018-08-22T05:42:24.467Z,31.3
2018-08-22T05:43:26.078Z,31.3
2018-08-22T05:44:27.549Z,31.3
2018-08-22T05:45:29.016Z,31.3
2018-08-22T05:46:30.617Z,31.8
2018-08-22T05:47:32.222Z,30.8
2018-08-22T05:48:33.824Z,31.8
2018-08-22T05:49:35.439Z,31.3
2018-08-22T05:50:37.047Z,31.8
2018-08-22T05:51:38.496Z,31.8
2018-08-22T05:52:39.940Z,30.8
2018-08-22T05:53:41.378Z,31.8
2018-08-22T05:54:42.979Z,31.8
2018-08-22T05:55:44.587Z,31.3
2018-08-22T05:56:46.041Z,31.3
2018-08-22T05:57:47.483Z,31.8
2018-08-22T05:58:48.611Z,31.8
2018-08-22T05:59:50.220Z,31.8
2018-08-22T06:00:51.702Z,32.3
2018-08-22T06:01:53.156Z,31.8
2018-08-22T06:02:54.596Z,31.8
2018-08-22T06:03:56.211Z,32.7
2018-08-22T06:04:57.827Z,31.8
2018-08-22T06:05:59.431Z,32.3
2018-08-22T06:07:01.041Z,32.3
2018-08-22T06:08:02.485Z,31.8
2018-08-22T06:09:04.303Z,32.7
2018-08-22T06:10:05.779Z,32.7
2018-08-22T06:11:06.944Z,32.3
2018-08-22T06:12:08.756Z,31.8
2018-08-22T06:13:10.353Z,31.8
2018-08-22T06:14:11.962Z,32.3
2018-08-22T06:15:13.424Z,32.3
2018-08-22T06:16:14.871Z,31.3
2018-08-22T06:17:16.474Z,31.8
2018-08-22T06:18:17.935Z,32.7
2018-08-22T06:19:19.566Z,31.8
2018-08-22T06:20:21.015Z,32.3
2018-08-22T06:21:22.624Z,31.8
2018-08-22T06:22:24.214Z,32.7
2018-08-22T06:23:25.485Z,31.8
2018-08-22T06:24:27.098Z,32.3
2018-08-22T06:25:28.606Z,31.8
2018-08-22T06:26:30.284Z,31.8
2018-08-22T06:27:31.580Z,31.8
2018-08-22T06:28:33.179Z,32.3
2018-08-22T06:29:34.629Z,32.3
2018-08-22T06:30:36.102Z,32.7
2018-08-22T06:31:37.718Z,31.8
2018-08-22T06:32:39.335Z,31.8
2018-08-22T06:33:40.935Z,32.3
2018-08-22T06:34:42.373Z,31.8
2018-08-22T06:35:43.803Z,31.8
2018-08-22T06:36:45.434Z,32.3
2018-08-22T06:37:47.030Z,32.7
2018-08-22T06:38:48.297Z,31.8
2018-08-22T06:39:49.906Z,32.3
2018-08-22T06:40:51.512Z,31.8
2018-08-22T06:41:52.781Z,31.8
2018-08-22T06:42:54.392Z,31.3
2018-08-22T06:43:56.011Z,32.3
2018-08-22T06:44:57.643Z,31.8
2018-08-22T06:45:59.253Z,32.3
2018-08-22T06:47:00.698Z,31.8
2018-08-22T06:48:02.156Z,32.3
2018-08-22T06:49:03.613Z,32.3
2018-08-22T06:50:05.218Z,31.3
2018-08-22T06:51:06.760Z,31.8
2018-08-22T06:52:08.381Z,32.3
2018-08-22T06:53:09.845Z,31.3
2018-08-22T06:54:11.267Z,31.3
2018-08-22T06:55:12.873Z,32.3
2018-08-22T06:56:14.349Z,31.8
2018-08-22T06:57:16.633Z,31.8
2018-08-22T06:58:18.197Z,31.8
2018-08-22T06:59:19.830Z,31.8
2018-08-22T07:00:21.249Z,31.3
2018-08-22T07:01:22.552Z,31.8
2018-08-22T07:02:24.162Z,31.8
2018-08-22T07:03:25.775Z,31.3
2018-08-22T07:04:27.086Z,31.8
2018-08-22T07:05:28.696Z,31.3
2018-08-22T07:06:30.160Z,31.8
2018-08-22T07:07:31.605Z,32.7
2018-08-22T07:08:33.196Z,37.1
2018-08-22T07:09:34.639Z,38.6
2018-08-22T07:10:36.259Z,40.1
2018-08-22T07:11:37.721Z,40.6
2018-08-22T07:12:39.340Z,41.1
2018-08-22T07:13:40.813Z,40.6
2018-08-22T07:14:42.439Z,40.1
2018-08-22T07:15:43.900Z,40.6
2018-08-22T07:16:45.167Z,40.1
2018-08-22T07:17:46.774Z,40.1
2018-08-22T07:18:48.404Z,40.1
2018-08-22T07:19:49.839Z,40.6
2018-08-22T07:20:51.360Z,39.6
2018-08-22T07:21:52.727Z,39.6
2018-08-22T07:22:54.196Z,39.1
2018-08-22T07:23:55.648Z,39.1
2018-08-22T07:24:57.680Z,38.6
2018-08-22T07:25:59.313Z,38.6
2018-08-22T07:27:00.775Z,38.1
2018-08-22T07:28:02.368Z,38.6
2018-08-22T07:29:03.961Z,38.1
2018-08-22T07:30:06.095Z,38.6
2018-08-22T07:31:07.852Z,37.6
2018-08-22T07:32:09.314Z,38.6
2018-08-22T07:33:10.765Z,37.1
2018-08-22T07:34:12.042Z,38.1
2018-08-22T07:35:13.655Z,36.7
2018-08-22T07:36:15.256Z,37.6
2018-08-22T07:37:16.890Z,37.1
2018-08-22T07:38:18.327Z,36.7
2018-08-22T07:39:19.922Z,37.1
2018-08-22T07:40:21.359Z,37.1
2018-08-22T07:41:22.798Z,36.2
2018-08-22T07:42:24.407Z,36.7
2018-08-22T07:43:25.850Z,37.1
2018-08-22T07:44:27.454Z,36.7
2018-08-22T07:45:29.078Z,36.7
2018-08-22T07:46:30.769Z,37.1
2018-08-22T07:47:32.421Z,36.7
2018-08-22T07:48:33.954Z,36.7
2018-08-22T07:49:35.623Z,36.7
2018-08-22T07:50:37.136Z,36.7
2018-08-22T07:51:38.752Z,36.7
2018-08-22T07:52:40.361Z,36.2
2018-08-22T07:53:41.984Z,36.2
2018-08-22T07:54:43.583Z,36.2
2018-08-22T07:55:45.017Z,37.1
2018-08-22T07:56:46.612Z,36.7
2018-08-22T07:57:47.870Z,36.2
2018-08-22T07:58:49.476Z,36.7
2018-08-22T07:59:51.125Z,36.2
2018-08-22T08:00:52.255Z,36.2
2018-08-22T08:01:54.733Z,36.2
2018-08-22T08:02:56.423Z,35.7
2018-08-22T08:03:58.037Z,36.2
2018-08-22T08:04:59.657Z,35.7
2018-08-22T08:06:01.191Z,36.2
2018-08-22T08:07:03.037Z,35.7
2018-08-22T08:08:04.685Z,35.7
2018-08-22T08:09:06.157Z,35.7
2018-08-22T08:10:07.819Z,35.7
2018-08-22T08:11:09.477Z,35.2
2018-08-22T08:12:10.936Z,35.7
2018-08-22T08:13:12.475Z,36.2
2018-08-22T08:14:14.152Z,35.7
2018-08-22T08:15:15.823Z,36.2
2018-08-22T08:16:17.463Z,36.7
2018-08-22T08:17:19.217Z,35.2
2018-08-22T08:18:20.497Z,34.7
2018-08-22T08:19:22.180Z,35.7
2018-08-22T08:20:23.617Z,34.7
2018-08-22T08:21:25.225Z,35.2
2018-08-22T08:22:26.666Z,35.2
2018-08-22T08:23:28.265Z,35.2
2018-08-22T08:24:29.867Z,35.7
2018-08-22T08:25:31.460Z,35.7
2018-08-22T08:26:32.976Z,35.2
2018-08-22T08:27:34.611Z,35.2
2018-08-22T08:28:35.912Z,35.7
2018-08-22T08:29:37.757Z,34.7
2018-08-22T08:30:40.031Z,35.2
2018-08-22T08:31:41.823Z,35.2
2018-08-22T08:32:43.285Z,34.7
2018-08-22T08:33:44.565Z,35.2
2018-08-22T08:34:45.999Z,35.2
2018-08-22T08:35:47.965Z,34.7
2018-08-22T08:36:49.818Z,34.7
2018-08-22T08:37:51.337Z,34.7
2018-08-22T08:38:53.127Z,34.7
2018-08-22T08:39:54.614Z,34.7
2018-08-22T08:40:56.278Z,34.2
2018-08-22T08:41:57.894Z,34.7
2018-08-22T08:42:59.189Z,34.7
2018-08-22T08:44:00.638Z,34.7
2018-08-22T08:45:02.295Z,34.7
2018-08-22T08:46:03.927Z,34.7
2018-08-22T08:47:05.301Z,34.7
2018-08-22T08:48:06.942Z,34.7
2018-08-22T08:49:08.566Z,34.2
2018-08-22T08:50:10.237Z,34.7
2018-08-22T08:51:11.830Z,34.7
2018-08-22T08:52:13.551Z,34.2
2018-08-22T08:53:15.007Z,33.7
2018-08-22T08:54:16.274Z,33.7
2018-08-22T08:55:17.989Z,33.7
2018-08-22T08:56:19.377Z,34.7
2018-08-22T08:57:21.717Z,34.2
2018-08-22T08:58:23.411Z,33.7
2018-08-22T08:59:25.135Z,34.2
2018-08-22T09:00:26.798Z,33.2
2018-08-22T09:01:28.321Z,34.2
2018-08-22T09:02:29.979Z,34.2
2018-08-22T09:03:31.505Z,33.7
2018-08-22T09:04:33.187Z,34.2
2018-08-22T09:05:34.867Z,34.2
2018-08-22T09:06:36.900Z,33.7
2018-08-22T09:07:38.209Z,34.2
2018-08-22T09:08:39.835Z,33.2
2018-08-22T09:09:41.309Z,33.2
2018-08-22T09:10:43.217Z,34.2
2018-08-22T09:11:44.556Z,33.7
2018-08-22T09:12:46.198Z,33.2
2018-08-22T09:13:47.805Z,33.7
2018-08-22T09:14:49.297Z,33.7
2018-08-22T09:15:50.746Z,33.7
2018-08-22T09:16:52.374Z,34.2
2018-08-22T09:17:54.021Z,33.2
2018-08-22T09:18:55.491Z,32.7
2018-08-22T09:19:57.129Z,33.7
2018-08-22T09:20:58.581Z,33.2
2018-08-22T09:22:00.134Z,33.2
2018-08-22T09:23:01.593Z,33.2
2018-08-22T09:24:03.675Z,33.7
2018-08-22T09:25:04.916Z,32.7
2018-08-22T09:26:06.573Z,33.2
2018-08-22T09:27:07.841Z,32.7
2018-08-22T09:28:09.841Z,33.2
2018-08-22T09:29:11.528Z,33.2
2018-08-22T09:30:13.031Z,33.2
2018-08-22T09:31:14.654Z,32.7
2018-08-22T09:32:16.307Z,33.2
2018-08-22T09:33:17.943Z,32.7
2018-08-22T09:34:19.381Z,32.3
2018-08-22T09:35:20.909Z,32.7
2018-08-22T09:36:22.437Z,32.7
2018-08-22T09:37:24.115Z,33.2
2018-08-22T09:38:25.714Z,33.2
2018-08-22T09:39:27.959Z,33.2
2018-08-22T09:40:29.785Z,33.2
2018-08-22T09:41:30.919Z,33.2
2018-08-22T09:42:32.515Z,33.7
2018-08-22T09:43:33.792Z,33.2
2018-08-22T09:44:35.109Z,33.2
2018-08-22T09:45:36.581Z,33.2
2018-08-22T09:46:38.673Z,33.2
2018-08-22T09:47:40.552Z,33.7
2018-08-22T09:48:42.045Z,33.7
2018-08-22T09:49:43.637Z,33.7
2018-08-22T09:50:45.125Z,33.2
2018-08-22T09:51:46.802Z,33.7
2018-08-22T09:52:48.438Z,33.2
2018-08-22T09:53:50.066Z,34.7
2018-08-22T09:54:51.511Z,34.7
2018-08-22T09:55:53.127Z,34.2
2018-08-22T09:56:54.732Z,34.7
2018-08-22T09:57:56.205Z,34.2
2018-08-22T09:58:57.662Z,34.2
2018-08-22T09:59:59.282Z,33.7
2018-08-22T10:01:01.248Z,33.7
2018-08-22T10:02:02.933Z,33.7
2018-08-22T10:03:04.568Z,34.2
2018-08-22T10:04:06.200Z,33.7
2018-08-22T10:05:07.834Z,33.7
2018-08-22T10:06:09.460Z,33.7
2018-08-22T10:07:11.849Z,34.2
2018-08-22T10:08:13.780Z,33.7
2018-08-22T10:09:15.234Z,33.7
2018-08-22T10:10:17.103Z,33.7
2018-08-22T10:11:18.773Z,33.2
2018-08-22T10:12:20.495Z,33.7
2018-08-22T10:13:21.956Z,33.7
2018-08-22T10:14:23.590Z,34.2
2018-08-22T10:15:25.189Z,33.7
2018-08-22T10:16:26.824Z,33.2
2018-08-22T10:17:28.425Z,33.7
2018-08-22T10:18:30.069Z,34.2
2018-08-22T10:19:31.972Z,34.2
2018-08-22T10:20:33.621Z,33.7
2018-08-22T10:21:34.904Z,34.7
2018-08-22T10:22:36.507Z,32.7
2018-08-22T10:23:38.106Z,33.7
2018-08-22T10:24:39.553Z,33.2
2018-08-22T10:25:41.003Z,33.7
2018-08-22T10:26:42.747Z,34.2
2018-08-22T10:27:44.385Z,33.2
2018-08-22T10:28:46.201Z,33.2
2018-08-22T10:29:47.814Z,33.2
2018-08-22T10:30:49.431Z,34.2
2018-08-22T10:31:51.078Z,34.2
2018-08-22T10:32:53.440Z,33.7
2018-08-22T10:33:55.336Z,33.2
2018-08-22T10:34:56.969Z,33.2
2018-08-22T10:35:58.255Z,33.7
2018-08-22T10:36:59.380Z,33.7
2018-08-22T10:38:01.004Z,33.2
2018-08-22T10:39:02.635Z,33.7
2018-08-22T10:40:04.286Z,33.7
2018-08-22T10:41:05.908Z,33.7
2018-08-22T10:42:07.540Z,33.2
2018-08-22T10:43:08.985Z,33.7
2018-08-22T10:44:10.616Z,34.2
2018-08-22T10:45:12.292Z,33.2
2018-08-22T10:46:13.931Z,32.7
2018-08-22T10:47:15.566Z,33.2
2018-08-22T10:48:17.316Z,33.2
2018-08-22T10:49:18.957Z,33.7
2018-08-22T10:50:20.589Z,33.2
2018-08-22T10:51:22.203Z,33.2
2018-08-22T10:52:23.808Z,32.3
2018-08-22T10:53:25.434Z,32.7
2018-08-22T10:54:27.081Z,33.2
2018-08-22T10:55:28.730Z,33.2
2018-08-22T10:56:30.047Z,32.3
2018-08-22T10:57:31.492Z,33.2
2018-08-22T10:58:32.960Z,32.7
2018-08-22T10:59:34.595Z,33.2
2018-08-22T11:00:36.053Z,33.2
2018-08-22T11:01:37.668Z,33.2
2018-08-22T11:02:39.147Z,32.3
2018-08-22T11:03:40.777Z,32.7
2018-08-22T11:04:42.412Z,33.2
2018-08-22T11:05:44.036Z,32.3
2018-08-22T11:06:45.311Z,33.2
2018-08-22T11:07:46.782Z,32.7
2018-08-22T11:08:48.400Z,32.7
2018-08-22T11:09:49.794Z,32.7
2018-08-22T11:10:51.457Z,32.7
2018-08-22T11:11:52.743Z,33.2
2018-08-22T11:12:54.368Z,32.7
2018-08-22T11:13:55.990Z,32.7
2018-08-22T11:14:57.599Z,32.3
2018-08-22T11:15:59.445Z,31.8
2018-08-22T11:17:01.181Z,32.3
2018-08-22T11:18:02.616Z,32.7
2018-08-22T11:20:20.391Z,32.7
2018-08-22T11:21:21.845Z,32.3
2018-08-22T11:22:23.513Z,32.3
2018-08-22T11:23:25.256Z,32.7
2018-08-22T11:24:26.564Z,32.7
2018-08-22T11:25:28.166Z,32.3
2018-08-22T11:26:29.771Z,32.3
2018-08-22T11:27:31.384Z,32.7
2018-08-22T11:28:33.006Z,32.3
2018-08-22T11:29:34.450Z,31.8
2018-08-22T11:30:36.043Z,32.3
2018-08-22T11:31:37.511Z,31.8
2018-08-22T11:32:38.944Z,32.7
2018-08-22T11:33:40.053Z,32.3
2018-08-22T11:34:41.687Z,33.2
2018-08-22T11:35:43.327Z,32.7
2018-08-22T11:36:44.780Z,32.7
2018-08-22T11:37:46.071Z,32.7
2018-08-22T11:38:47.359Z,32.7
2018-08-22T11:39:48.961Z,32.7
2018-08-22T11:40:50.405Z,32.7
2018-08-22T11:41:52.008Z,32.3
2018-08-22T11:42:53.611Z,33.2
2018-08-22T11:43:55.046Z,32.7
2018-08-22T11:44:56.666Z,33.2
2018-08-22T11:45:58.291Z,33.2
2018-08-22T11:46:59.906Z,32.7
2018-08-22T11:48:01.345Z,33.7
2018-08-22T11:49:02.817Z,33.2
2018-08-22T11:50:04.277Z,32.7
2018-08-22T11:51:05.891Z,32.7
2018-08-22T11:52:07.487Z,33.2
2018-08-22T11:53:08.784Z,33.2
2018-08-22T11:54:10.419Z,33.2
2018-08-22T11:55:11.882Z,33.2
2018-08-22T11:56:13.496Z,33.7
2018-08-22T11:57:14.786Z,32.7
2018-08-22T11:58:16.382Z,33.7
2018-08-22T11:59:17.983Z,33.2
2018-08-22T12:00:19.467Z,33.2
2018-08-22T12:01:21.081Z,32.7
2018-08-22T12:02:22.713Z,33.2
2018-08-22T12:03:24.346Z,33.7
2018-08-22T12:04:25.983Z,33.7
2018-08-22T12:05:27.615Z,33.2
2018-08-22T12:06:29.228Z,32.7
2018-08-22T12:07:30.860Z,33.2
2018-08-22T12:08:32.314Z,33.7
2018-08-22T12:09:33.760Z,33.7
2018-08-22T12:10:35.382Z,33.2
2018-08-22T12:11:37.058Z,33.7
2018-08-22T12:12:38.675Z,33.2
2018-08-22T12:13:40.296Z,33.7
2018-08-22T12:14:41.916Z,32.7
2018-08-22T12:15:43.364Z,33.7
2018-08-22T12:16:44.988Z,33.2
2018-08-22T12:17:46.417Z,33.2
2018-08-22T12:18:48.014Z,33.7
2018-08-22T12:19:49.612Z,33.2
2018-08-22T12:20:51.236Z,33.7
2018-08-22T12:21:52.709Z,33.2
2018-08-22T12:22:54.305Z,32.7
2018-08-22T12:23:55.706Z,32.7
2018-08-22T12:24:57.322Z,32.7
2018-08-22T12:25:58.937Z,32.3
2018-08-22T12:27:00.552Z,33.2
2018-08-22T12:28:02.195Z,32.7
2018-08-22T12:29:03.632Z,33.2
2018-08-22T12:30:05.253Z,33.2
2018-08-22T12:31:07.116Z,33.2
2018-08-22T12:32:08.772Z,33.7
2018-08-22T12:33:10.405Z,33.2
2018-08-22T12:34:12.026Z,32.7
2018-08-22T12:35:13.632Z,33.2
2018-08-22T12:36:15.266Z,32.3
2018-08-22T12:37:16.870Z,33.2
2018-08-22T12:38:18.498Z,33.2
2018-08-22T12:39:20.136Z,33.2
2018-08-22T12:40:21.759Z,32.7
2018-08-22T12:41:23.356Z,32.7
2018-08-22T12:42:24.815Z,32.7
2018-08-22T12:43:26.445Z,32.7
2018-08-22T12:44:28.243Z,32.7
2018-08-22T12:45:29.738Z,33.2
2018-08-22T12:46:31.357Z,32.7
2018-08-22T12:47:32.969Z,33.2
2018-08-22T12:48:34.594Z,33.2
2018-08-22T12:49:35.706Z,32.7
2018-08-22T12:50:37.335Z,32.7
2018-08-22T12:51:38.796Z,32.3
2018-08-22T12:52:40.072Z,32.7
2018-08-22T12:53:41.529Z,32.7
2018-08-22T12:54:42.992Z,32.7
2018-08-22T12:55:44.436Z,32.7
2018-08-22T12:56:45.887Z,33.2
2018-08-22T12:57:47.525Z,32.3
2018-08-22T12:58:48.822Z,32.7
2018-08-22T12:59:50.108Z,32.3
2018-08-22T13:00:51.576Z,32.7
2018-08-22T13:01:53.176Z,32.3
2018-08-22T13:02:54.824Z,33.2
2018-08-22T13:03:56.291Z,32.7
2018-08-22T13:04:57.908Z,33.2
2018-08-22T13:05:59.506Z,32.7
2018-08-22T13:07:01.132Z,32.7
2018-08-22T13:08:02.594Z,33.2
2018-08-22T13:09:04.196Z,32.7
2018-08-22T13:10:05.826Z,32.7
2018-08-22T13:11:07.641Z,32.7
2018-08-22T13:12:09.395Z,32.3
2018-08-22T13:13:11.015Z,32.3
2018-08-22T13:14:12.629Z,32.3
2018-08-22T13:15:14.239Z,32.3
2018-08-22T13:16:15.677Z,31.8
2018-08-22T13:17:17.295Z,33.2
2018-08-22T13:18:18.726Z,32.7
2018-08-22T13:19:20.330Z,32.7
2018-08-22T13:20:21.941Z,32.3
2018-08-22T13:21:23.577Z,31.8
2018-08-22T13:22:24.704Z,32.3
2018-08-22T13:23:26.329Z,32.3
2018-08-22T13:24:27.766Z,32.3
2018-08-22T13:25:29.377Z,32.3
2018-08-22T13:26:30.852Z,32.3
2018-08-22T13:27:32.473Z,31.8
2018-08-22T13:28:34.104Z,32.3
2018-08-22T13:29:35.716Z,32.3
2018-08-22T13:30:37.166Z,31.8
2018-08-22T13:31:38.610Z,32.3
2018-08-22T13:32:40.225Z,32.3
2018-08-22T13:33:41.666Z,32.7
2018-08-22T13:34:43.147Z,32.7
2018-08-22T13:35:44.803Z,32.3
2018-08-22T13:36:46.434Z,32.3
2018-08-22T13:37:48.061Z,32.7
2018-08-22T13:38:49.325Z,32.3
2018-08-22T13:39:51.282Z,33.2
2018-08-22T13:40:52.996Z,33.2